createdAt,value
2018-02-15T00:00:16.043Z,0.00
2018-02-15T00:01:15.993Z,0.00
2018-02-15T00:02:15.945Z,0.00
2018-02-15T00:03:15.897Z,0.00
2018-02-15T00:04:15.847Z,0.00
2018-02-15T00:05:15.798Z,0.00
2018-02-15T00:06:15.752Z,0.00
2018-02-15T00:07:15.701Z,0.00
2018-02-15T00:08:15.657Z,0.00
2018-02-15T00:09:15.605Z,0.00
2018-02-15T00:10:15.554Z,0.00
2018-02-15T00:11:15.513Z,0.00
2018-02-15T00:12:15.460Z,0.00
2018-02-15T00:13:15.411Z,0.00
2018-02-15T00:14:15.368Z,0.00
2018-02-15T00:15:15.316Z,0.00
2018-02-15T00:16:15.262Z,0.00
2018-02-15T00:17:15.223Z,0.00
2018-02-15T00:18:15.169Z,0.00
2018-02-15T00:19:15.120Z,0.00
2018-02-15T00:20:15.071Z,0.00
2018-02-15T00:21:15.023Z,0.00
2018-02-15T00:22:14.976Z,0.00
2018-02-15T00:23:14.922Z,0.00
2018-02-15T00:24:14.873Z,0.00
2018-02-15T00:25:14.828Z,0.00
2018-02-15T00:26:14.777Z,0.00
2018-02-15T00:27:14.729Z,0.00
2018-02-15T00:28:14.680Z,0.00
2018-02-15T00:29:14.631Z,0.00
2018-02-15T00:30:14.584Z,0.00
2018-02-15T00:31:14.535Z,0.00
2018-02-15T00:32:14.488Z,0.00
2018-02-15T00:33:14.439Z,0.00
2018-02-15T00:34:14.388Z,0.00
2018-02-15T00:35:14.342Z,0.00
2018-02-15T00:36:14.290Z,0.00
2018-02-15T00:37:14.242Z,0.00
2018-02-15T00:38:14.194Z,0.00
2018-02-15T00:39:14.146Z,0.00
2018-02-15T00:40:14.098Z,0.00
2018-02-15T00:41:14.049Z,0.00
2018-02-15T00:42:13.999Z,0.00
2018-02-15T00:43:13.951Z,0.00
2018-02-15T00:44:13.903Z,0.00
2018-02-15T00:45:13.855Z,0.00
2018-02-15T00:46:13.808Z,0.00
2018-02-15T00:47:13.760Z,0.00
2018-02-15T00:48:13.706Z,0.00
2018-02-15T00:49:13.657Z,0.00
2018-02-15T00:50:13.614Z,0.00
2018-02-15T00:51:13.563Z,0.00
2018-02-15T00:52:13.518Z,0.00
2018-02-15T00:53:13.463Z,0.00
2018-02-15T00:54:13.419Z,0.00
2018-02-15T00:55:13.369Z,0.00
2018-02-15T00:56:13.319Z,0.00
2018-02-15T00:57:13.270Z,0.00
2018-02-15T00:58:13.223Z,0.00
2018-02-15T00:59:13.176Z,0.00
2018-02-15T01:00:13.129Z,0.00
2018-02-15T01:01:13.081Z,0.00
2018-02-15T01:02:13.028Z,0.00
2018-02-15T01:03:12.981Z,0.00
2018-02-15T01:04:12.929Z,0.00
2018-02-15T01:05:12.885Z,0.00
2018-02-15T01:06:12.834Z,0.00
2018-02-15T01:07:12.787Z,0.00
2018-02-15T01:08:12.733Z,0.00
2018-02-15T01:09:12.687Z,0.00
2018-02-15T01:10:12.639Z,0.00
2018-02-15T01:11:12.589Z,0.00
2018-02-15T01:12:12.539Z,0.00
2018-02-15T01:13:12.491Z,0.00
2018-02-15T01:14:12.445Z,0.00
2018-02-15T01:15:12.394Z,0.00
2018-02-15T01:16:12.350Z,0.00
2018-02-15T01:17:12.300Z,0.00
2018-02-15T01:18:12.248Z,0.00
2018-02-15T01:19:12.205Z,0.00
2018-02-15T01:20:12.150Z,0.00
2018-02-15T01:21:12.104Z,0.00
2018-02-15T01:22:12.057Z,0.00
2018-02-15T01:23:12.007Z,0.00
2018-02-15T01:24:11.960Z,0.00
2018-02-15T01:25:11.909Z,0.00
2018-02-15T01:26:11.860Z,0.00
2018-02-15T01:27:11.815Z,0.00
2018-02-15T01:28:11.763Z,0.00
2018-02-15T01:29:11.714Z,0.00
2018-02-15T01:30:11.667Z,0.00
2018-02-15T01:31:11.616Z,0.00
2018-02-15T01:32:11.567Z,0.00
2018-02-15T01:33:11.524Z,0.00
2018-02-15T01:34:11.470Z,0.00
2018-02-15T01:35:11.421Z,0.00
2018-02-15T01:36:11.373Z,0.00
2018-02-15T01:37:11.324Z,0.00
2018-02-15T01:38:11.275Z,0.00
2018-02-15T01:39:11.235Z,0.00
2018-02-15T01:40:11.182Z,0.00
2018-02-15T01:41:11.130Z,0.00
2018-02-15T01:42:11.087Z,0.00
2018-02-15T01:43:11.034Z,0.00
2018-02-15T01:44:10.982Z,0.00
2018-02-15T01:45:10.935Z,0.00
2018-02-15T01:46:10.890Z,0.00
2018-02-15T01:47:10.841Z,0.00
2018-02-15T01:48:10.788Z,0.00
2018-02-15T01:49:10.741Z,0.00
2018-02-15T01:50:10.691Z,0.00
2018-02-15T01:51:10.642Z,0.00
2018-02-15T01:52:10.639Z,0.00
2018-02-15T01:53:10.548Z,0.00
2018-02-15T01:54:10.499Z,0.00
2018-02-15T01:55:10.490Z,0.00
2018-02-15T01:56:10.403Z,0.00
2018-02-15T01:57:10.433Z,0.00
2018-02-15T01:58:10.510Z,0.00
2018-02-15T01:59:10.255Z,0.00
2018-02-15T02:00:10.208Z,0.00
2018-02-15T02:01:10.161Z,0.00
2018-02-15T02:02:10.109Z,0.00
2018-02-15T02:03:10.061Z,0.00
2018-02-15T02:04:10.018Z,0.00
2018-02-15T02:05:09.964Z,0.00
2018-02-15T02:06:09.917Z,0.00
2018-02-15T02:07:09.866Z,0.00
2018-02-15T02:08:09.820Z,0.00
2018-02-15T02:09:09.771Z,0.00
2018-02-15T02:10:09.721Z,0.00
2018-02-15T02:11:09.678Z,0.00
2018-02-15T02:12:09.632Z,0.00
2018-02-15T02:13:09.576Z,0.00
2018-02-15T02:14:09.528Z,0.00
2018-02-15T02:15:09.481Z,0.00
2018-02-15T02:16:09.436Z,0.00
2018-02-15T02:17:09.381Z,0.00
2018-02-15T02:18:09.335Z,0.00
2018-02-15T02:19:09.283Z,0.00
2018-02-15T02:20:09.234Z,0.00
2018-02-15T02:21:09.191Z,0.00
2018-02-15T02:22:09.138Z,0.00
2018-02-15T02:23:09.093Z,0.00
2018-02-15T02:24:09.041Z,0.00
2018-02-15T02:25:08.995Z,0.00
2018-02-15T02:26:08.945Z,0.00
2018-02-15T02:27:08.898Z,0.00
2018-02-15T02:28:08.846Z,0.00
2018-02-15T02:29:08.801Z,0.00
2018-02-15T02:30:08.751Z,0.00
2018-02-15T02:31:08.704Z,0.00
2018-02-15T02:32:08.654Z,0.00
2018-02-15T02:33:08.603Z,0.00
2018-02-15T02:34:08.558Z,0.00
2018-02-15T02:35:08.507Z,0.00
2018-02-15T02:36:08.466Z,0.00
2018-02-15T02:37:08.415Z,0.00
2018-02-15T02:38:08.368Z,0.00
2018-02-15T02:39:08.314Z,0.00
2018-02-15T02:40:08.265Z,0.00
2018-02-15T02:41:08.218Z,0.00
2018-02-15T02:42:08.168Z,0.00
2018-02-15T02:43:08.119Z,0.00
2018-02-15T02:44:08.076Z,0.00
2018-02-15T02:45:08.025Z,0.00
2018-02-15T02:46:07.973Z,0.00
2018-02-15T02:47:07.926Z,0.00
2018-02-15T02:48:07.880Z,0.00
2018-02-15T02:49:07.830Z,0.00
2018-02-15T02:50:07.781Z,0.00
2018-02-15T02:51:07.731Z,0.00
2018-02-15T02:52:07.681Z,0.00
2018-02-15T02:53:07.633Z,0.00
2018-02-15T02:54:07.585Z,0.00
2018-02-15T02:55:07.539Z,0.00
2018-02-15T02:56:07.489Z,0.00
2018-02-15T02:57:07.438Z,0.00
2018-02-15T02:58:07.392Z,0.00
2018-02-15T02:59:07.344Z,0.00
2018-02-15T03:00:07.299Z,0.00
2018-02-15T03:01:07.247Z,0.00
2018-02-15T03:02:07.200Z,0.00
2018-02-15T03:03:07.147Z,0.00
2018-02-15T03:04:07.101Z,0.00
2018-02-15T03:05:07.056Z,0.00
2018-02-15T03:06:07.003Z,0.00
2018-02-15T03:07:06.972Z,0.00
2018-02-15T03:08:06.904Z,0.00
2018-02-15T03:09:06.856Z,0.00
2018-02-15T03:10:06.808Z,0.00
2018-02-15T03:11:06.761Z,0.00
2018-02-15T03:12:06.710Z,0.00
2018-02-15T03:13:06.665Z,0.00
2018-02-15T03:14:06.614Z,0.00
2018-02-15T03:15:06.570Z,0.00
2018-02-15T03:16:06.518Z,0.00
2018-02-15T03:17:06.470Z,0.00
2018-02-15T03:18:06.422Z,0.00
2018-02-15T03:19:06.370Z,0.00
2018-02-15T03:20:06.324Z,0.00
2018-02-15T03:21:06.276Z,0.00
2018-02-15T03:22:06.235Z,0.00
2018-02-15T03:23:06.180Z,0.00
2018-02-15T03:24:06.134Z,0.00
2018-02-15T03:25:06.086Z,0.00
2018-02-15T03:26:06.031Z,0.00
2018-02-15T03:27:05.985Z,0.00
2018-02-15T03:28:05.940Z,0.00
2018-02-15T03:29:05.890Z,0.00
2018-02-15T03:30:05.840Z,0.00
2018-02-15T03:31:05.794Z,0.00
2018-02-15T03:32:05.749Z,0.00
2018-02-15T03:33:05.694Z,0.00
2018-02-15T03:34:05.644Z,0.00
2018-02-15T03:35:05.599Z,0.00
2018-02-15T03:36:05.547Z,0.00
2018-02-15T03:37:05.502Z,0.00
2018-02-15T03:38:05.453Z,0.00
2018-02-15T03:39:05.403Z,0.00
2018-02-15T03:40:05.357Z,0.00
2018-02-15T03:41:05.306Z,0.00
2018-02-15T03:42:05.257Z,0.00
2018-02-15T03:43:05.209Z,0.00
2018-02-15T03:44:05.164Z,0.00
2018-02-15T03:45:05.114Z,0.00
2018-02-15T03:46:05.063Z,0.00
2018-02-15T03:47:05.017Z,0.00
2018-02-15T03:48:04.968Z,0.00
2018-02-15T03:49:04.917Z,0.00
2018-02-15T03:50:04.929Z,0.00
2018-02-15T03:51:04.941Z,0.00
2018-02-15T03:52:04.772Z,0.00
2018-02-15T03:53:04.725Z,0.00
2018-02-15T03:54:04.674Z,0.00
2018-02-15T03:55:04.625Z,0.00
2018-02-15T03:56:04.576Z,0.00
2018-02-15T03:57:04.527Z,0.00
2018-02-15T03:58:04.478Z,0.00
2018-02-15T03:59:04.430Z,0.00
2018-02-15T04:00:04.385Z,0.00
2018-02-15T04:01:04.331Z,0.00
2018-02-15T04:02:04.283Z,0.00
2018-02-15T04:03:04.234Z,0.00
2018-02-15T04:04:04.186Z,0.00
2018-02-15T04:05:04.133Z,0.00
2018-02-15T04:06:04.090Z,0.00
2018-02-15T04:07:04.042Z,0.00
2018-02-15T04:08:03.992Z,0.00
2018-02-15T04:09:03.938Z,0.00
2018-02-15T04:10:03.893Z,0.00
2018-02-15T04:11:03.842Z,0.00
2018-02-15T04:12:03.792Z,0.00
2018-02-15T04:13:03.757Z,0.00
2018-02-15T04:14:03.694Z,0.00
2018-02-15T04:15:03.647Z,0.00
2018-02-15T04:16:03.600Z,0.00
2018-02-15T04:17:03.553Z,0.00
2018-02-15T04:18:03.495Z,0.00
2018-02-15T04:19:03.448Z,0.00
2018-02-15T04:20:03.398Z,0.00
2018-02-15T04:21:03.350Z,0.00
2018-02-15T04:22:03.301Z,0.00
2018-02-15T04:23:03.271Z,0.00
2018-02-15T04:24:03.204Z,0.00
2018-02-15T04:25:03.153Z,0.00
2018-02-15T04:26:03.102Z,0.00
2018-02-15T04:27:03.054Z,0.00
2018-02-15T04:28:03.003Z,0.00
2018-02-15T04:29:02.954Z,0.00
2018-02-15T04:30:02.912Z,0.00
2018-02-15T04:31:02.861Z,0.00
2018-02-15T04:32:02.807Z,0.00
2018-02-15T04:33:02.760Z,0.00
2018-02-15T04:34:02.713Z,0.00
2018-02-15T04:35:02.663Z,0.00
2018-02-15T04:36:02.609Z,0.00
2018-02-15T04:37:02.562Z,0.00
2018-02-15T04:38:02.512Z,0.00
2018-02-15T04:39:02.460Z,0.00
2018-02-15T04:40:02.411Z,0.00
2018-02-15T04:41:02.366Z,0.00
2018-02-15T04:42:02.312Z,0.00
2018-02-15T04:43:02.268Z,0.00
2018-02-15T04:44:02.213Z,0.00
2018-02-15T04:45:02.164Z,0.00
2018-02-15T04:46:02.143Z,0.00
2018-02-15T04:47:02.071Z,0.00
2018-02-15T04:48:02.014Z,0.00
2018-02-15T04:49:01.967Z,0.00
2018-02-15T04:50:01.921Z,0.00
2018-02-15T04:51:01.866Z,0.00
2018-02-15T04:52:01.815Z,0.00
2018-02-15T04:53:01.769Z,0.00
2018-02-15T04:54:01.723Z,0.00
2018-02-15T04:55:01.675Z,0.00
2018-02-15T04:56:01.616Z,0.00
2018-02-15T04:57:01.566Z,0.00
2018-02-15T04:58:01.519Z,0.00
2018-02-15T04:59:01.470Z,0.00
2018-02-15T05:00:01.421Z,0.00
2018-02-15T05:01:01.371Z,0.00
2018-02-15T05:02:01.320Z,0.00
2018-02-15T05:03:01.273Z,0.00
2018-02-15T05:04:01.221Z,0.00
2018-02-15T05:05:01.172Z,0.00
2018-02-15T05:06:01.123Z,0.00
2018-02-15T05:07:01.072Z,0.00
2018-02-15T05:08:01.024Z,0.00
2018-02-15T05:09:00.970Z,0.00
2018-02-15T05:10:00.932Z,0.00
2018-02-15T05:11:00.874Z,0.00
2018-02-15T05:12:00.827Z,0.00
2018-02-15T05:13:00.785Z,0.00
2018-02-15T05:14:00.725Z,0.00
2018-02-15T05:15:00.675Z,0.00
2018-02-15T05:16:00.625Z,0.00
2018-02-15T05:17:00.575Z,0.00
2018-02-15T05:18:00.524Z,0.00
2018-02-15T05:19:00.478Z,0.00
2018-02-15T05:20:00.425Z,0.00
2018-02-15T05:21:00.382Z,0.00
2018-02-15T05:22:00.323Z,0.00
2018-02-15T05:23:00.274Z,0.00
2018-02-15T05:24:00.227Z,0.00
2018-02-15T05:25:00.183Z,0.00
2018-02-15T05:26:00.124Z,0.00
2018-02-15T05:27:00.073Z,0.00
2018-02-15T05:28:00.030Z,0.00
2018-02-15T05:28:59.975Z,0.00
2018-02-15T05:29:59.927Z,0.00
2018-02-15T05:30:59.876Z,0.00
2018-02-15T05:31:59.825Z,0.00
2018-02-15T05:32:59.776Z,0.00
2018-02-15T05:33:59.729Z,0.00
2018-02-15T05:34:59.675Z,0.00
2018-02-15T05:35:59.628Z,0.00
2018-02-15T05:36:59.583Z,0.00
2018-02-15T05:37:59.524Z,0.00
2018-02-15T05:38:59.477Z,0.00
2018-02-15T05:39:59.430Z,0.00
2018-02-15T05:40:59.375Z,0.00
2018-02-15T05:41:59.326Z,0.00
2018-02-15T05:42:59.278Z,0.00
2018-02-15T05:43:59.232Z,0.00
2018-02-15T05:44:59.181Z,0.00
2018-02-15T05:45:59.123Z,0.00
2018-02-15T05:46:59.078Z,0.00
2018-02-15T05:47:59.026Z,0.00
2018-02-15T05:48:58.977Z,0.00
2018-02-15T05:49:58.925Z,0.00
2018-02-15T05:50:58.876Z,0.00
2018-02-15T05:51:58.834Z,0.00
2018-02-15T05:52:58.778Z,0.00
2018-02-15T05:53:58.733Z,0.00
2018-02-15T05:54:58.683Z,0.00
2018-02-15T05:55:58.627Z,0.00
2018-02-15T05:56:58.578Z,0.00
2018-02-15T05:57:58.528Z,0.00
2018-02-15T05:58:58.477Z,0.00
2018-02-15T05:59:58.427Z,0.00
2018-02-15T06:00:58.376Z,0.00
2018-02-15T06:01:58.328Z,0.00
2018-02-15T06:02:58.280Z,0.00
2018-02-15T06:03:58.229Z,0.00
2018-02-15T06:04:58.176Z,0.00
2018-02-15T06:05:58.126Z,0.00
2018-02-15T06:06:58.079Z,0.00
2018-02-15T06:07:58.027Z,0.00
2018-02-15T06:08:57.975Z,0.00
2018-02-15T06:09:57.928Z,0.00
2018-02-15T06:10:57.877Z,0.00
2018-02-15T06:11:57.826Z,0.00
2018-02-15T06:12:57.778Z,0.00
2018-02-15T06:13:57.729Z,0.00
2018-02-15T06:14:57.675Z,0.00
2018-02-15T06:15:57.625Z,0.00
2018-02-15T06:16:57.581Z,0.00
2018-02-15T06:17:57.537Z,0.00
2018-02-15T06:18:57.477Z,0.00
2018-02-15T06:19:57.426Z,0.00
2018-02-15T06:20:57.376Z,0.00
2018-02-15T06:21:57.332Z,0.00
2018-02-15T06:22:57.276Z,0.00
2018-02-15T06:23:57.228Z,0.00
2018-02-15T06:24:57.178Z,0.00
2018-02-15T06:25:57.124Z,0.00
2018-02-15T06:26:57.080Z,0.00
2018-02-15T06:27:57.028Z,0.00
2018-02-15T06:28:56.977Z,0.00
2018-02-15T06:29:56.937Z,0.00
2018-02-15T06:30:56.877Z,4.00
2018-02-15T06:31:56.828Z,4.00
2018-02-15T06:32:56.777Z,4.00
2018-02-15T06:33:56.737Z,0.00
2018-02-15T06:34:56.682Z,4.00
2018-02-15T06:35:56.629Z,4.00
2018-02-15T06:36:56.576Z,8.00
2018-02-15T06:37:56.526Z,8.00
2018-02-15T06:38:56.482Z,8.00
2018-02-15T06:39:56.428Z,8.00
2018-02-15T06:40:56.380Z,12.00
2018-02-15T06:41:56.330Z,12.00
2018-02-15T06:42:56.279Z,12.00
2018-02-15T06:43:56.230Z,12.00
2018-02-15T06:44:56.180Z,16.00
2018-02-15T06:45:56.134Z,16.00
2018-02-15T06:46:56.078Z,20.00
2018-02-15T06:47:56.032Z,16.00
2018-02-15T06:48:55.980Z,20.00
2018-02-15T06:49:55.935Z,20.00
2018-02-15T06:50:55.881Z,24.00
2018-02-15T06:51:55.829Z,24.00
2018-02-15T06:52:55.779Z,20.00
2018-02-15T06:54:55.683Z,28.00
2018-02-15T06:55:55.633Z,28.00
2018-02-15T06:56:55.590Z,28.00
2018-02-15T06:57:55.535Z,36.00
2018-02-15T06:58:55.482Z,36.00
2018-02-15T06:59:55.433Z,36.00
2018-02-15T07:00:55.380Z,36.00
2018-02-15T07:01:55.332Z,44.00
2018-02-15T07:02:55.286Z,48.00
2018-02-15T07:03:55.231Z,48.00
2018-02-15T07:04:55.186Z,52.00
2018-02-15T07:05:55.141Z,56.00
2018-02-15T07:06:55.085Z,60.00
2018-02-15T07:07:55.037Z,60.00
2018-02-15T07:08:57.686Z,68.00
2018-02-15T07:09:54.936Z,72.00
2018-02-15T07:10:54.891Z,72.00
2018-02-15T07:11:54.874Z,84.00
2018-02-15T07:12:54.786Z,92.00
2018-02-15T07:13:54.738Z,92.00
2018-02-15T07:14:54.688Z,100.00
2018-02-15T07:15:54.636Z,100.00
2018-02-15T07:16:54.587Z,108.00
2018-02-15T07:17:54.538Z,116.00
2018-02-15T07:18:54.485Z,128.00
2018-02-15T07:19:54.435Z,148.00
2018-02-15T07:20:54.391Z,160.00
2018-02-15T07:21:54.335Z,168.00
2018-02-15T07:22:54.289Z,180.00
2018-02-15T07:23:54.240Z,184.00
2018-02-15T07:24:54.189Z,192.00
2018-02-15T07:25:54.137Z,200.00
2018-02-15T07:26:54.087Z,208.00
2018-02-15T07:27:54.036Z,220.00
2018-02-15T07:28:53.993Z,232.00
2018-02-15T07:29:53.944Z,252.00
2018-02-15T07:30:53.890Z,256.00
2018-02-15T07:31:53.843Z,288.00
2018-02-15T07:32:53.792Z,300.00
2018-02-15T07:33:53.742Z,296.00
2018-02-15T07:34:53.691Z,296.00
2018-02-15T07:35:53.641Z,304.00
2018-02-15T07:36:53.592Z,316.00
2018-02-15T07:37:53.542Z,316.00
2018-02-15T07:38:53.493Z,368.00
2018-02-15T07:39:53.445Z,392.00
2018-02-15T07:40:53.396Z,396.00
2018-02-15T07:41:53.347Z,380.00
2018-02-15T07:42:53.296Z,368.00
2018-02-15T07:43:53.246Z,336.00
2018-02-15T07:44:53.198Z,336.00
2018-02-15T07:45:53.149Z,360.00
2018-02-15T07:46:53.098Z,360.00
2018-02-15T07:47:53.046Z,388.00
2018-02-15T07:48:52.996Z,392.00
2018-02-15T07:49:52.951Z,408.00
2018-02-15T07:50:52.900Z,452.00
2018-02-15T07:51:52.848Z,504.00
2018-02-15T07:52:52.798Z,516.00
2018-02-15T07:53:52.750Z,536.00
2018-02-15T07:54:52.700Z,540.00
2018-02-15T07:55:52.653Z,564.00
2018-02-15T07:56:52.600Z,572.00
2018-02-15T07:57:52.553Z,560.00
2018-02-15T07:58:52.506Z,600.00
2018-02-15T07:59:52.452Z,612.00
2018-02-15T08:00:52.402Z,620.00
2018-02-15T08:01:52.354Z,656.00
2018-02-15T08:02:52.305Z,680.00
2018-02-15T08:03:52.254Z,688.00
2018-02-15T08:04:52.204Z,676.00
2018-02-15T08:05:52.157Z,672.00
2018-02-15T08:06:52.106Z,680.00
2018-02-15T08:07:52.061Z,692.00
2018-02-15T08:08:52.011Z,712.00
2018-02-15T08:09:51.957Z,728.00
2018-02-15T08:10:51.908Z,784.00
2018-02-15T08:11:51.860Z,808.00
2018-02-15T08:12:51.807Z,800.00
2018-02-15T08:13:51.760Z,824.00
2018-02-15T08:14:51.715Z,788.00
2018-02-15T08:15:51.663Z,780.00
2018-02-15T08:16:51.610Z,760.00
2018-02-15T08:17:51.564Z,732.00
2018-02-15T08:18:51.517Z,764.00
2018-02-15T08:19:51.462Z,808.00
2018-02-15T08:20:51.414Z,848.00
2018-02-15T08:21:51.365Z,948.00
2018-02-15T08:22:51.340Z,956.00
2018-02-15T08:23:51.272Z,1008.00
2018-02-15T08:24:51.216Z,976.00
2018-02-15T08:25:51.171Z,980.00
2018-02-15T08:26:51.120Z,948.00
2018-02-15T08:27:51.071Z,924.00
2018-02-15T08:28:51.020Z,956.00
2018-02-15T08:29:50.974Z,944.00
2018-02-15T08:30:50.921Z,988.00
2018-02-15T08:31:50.872Z,980.00
2018-02-15T08:32:50.826Z,956.00
2018-02-15T08:33:50.808Z,960.00
2018-02-15T08:34:50.725Z,924.00
2018-02-15T08:35:50.675Z,860.00
2018-02-15T08:36:50.626Z,836.00
2018-02-15T08:37:50.578Z,788.00
2018-02-15T08:38:50.526Z,828.00
2018-02-15T08:39:50.478Z,848.00
2018-02-15T08:40:50.430Z,856.00
2018-02-15T08:41:50.383Z,856.00
2018-02-15T08:42:50.330Z,880.00
2018-02-15T08:43:50.293Z,884.00
2018-02-15T08:44:50.231Z,904.00
2018-02-15T08:45:50.183Z,928.00
2018-02-15T08:46:50.132Z,984.00
2018-02-15T08:47:50.083Z,996.00
2018-02-15T08:48:50.034Z,1024.00
2018-02-15T08:49:49.984Z,1044.00
2018-02-15T08:50:49.937Z,1020.00
2018-02-15T08:51:49.885Z,1008.00
2018-02-15T08:52:49.838Z,956.00
2018-02-15T08:53:49.787Z,928.00
2018-02-15T08:54:49.740Z,888.00
2018-02-15T08:55:49.691Z,956.00
2018-02-15T08:56:49.645Z,1040.00
2018-02-15T08:57:49.596Z,1056.00
2018-02-15T08:58:49.543Z,1064.00
2018-02-15T08:59:49.496Z,1096.00
2018-02-15T09:00:49.446Z,1136.00
2018-02-15T09:01:49.395Z,1092.00
2018-02-15T09:02:49.347Z,1128.00
2018-02-15T09:03:49.298Z,1184.00
2018-02-15T09:04:49.253Z,1156.00
2018-02-15T09:05:49.201Z,1124.00
2018-02-15T09:06:49.150Z,1096.00
2018-02-15T09:07:49.100Z,1080.00
2018-02-15T09:08:49.051Z,1112.00
2018-02-15T09:09:49.006Z,1224.00
2018-02-15T09:10:48.951Z,1404.00
2018-02-15T09:11:48.907Z,1508.00
2018-02-15T09:12:48.855Z,1516.00
2018-02-15T09:13:48.809Z,1464.00
2018-02-15T09:14:48.759Z,1448.00
2018-02-15T09:15:48.706Z,1364.00
2018-02-15T09:16:48.658Z,1368.00
2018-02-15T09:17:48.608Z,1352.00
2018-02-15T09:18:48.561Z,1268.00
2018-02-15T09:19:48.509Z,1144.00
2018-02-15T09:20:48.465Z,1140.00
2018-02-15T09:21:48.415Z,1152.00
2018-02-15T09:22:48.367Z,1136.00
2018-02-15T09:23:48.316Z,1128.00
2018-02-15T09:24:48.268Z,1120.00
2018-02-15T09:25:48.219Z,1092.00
2018-02-15T09:26:48.173Z,1108.00
2018-02-15T09:27:48.118Z,1220.00
2018-02-15T09:28:48.069Z,1332.00
2018-02-15T09:29:48.027Z,1368.00
2018-02-15T09:30:47.974Z,1208.00
2018-02-15T09:31:47.925Z,1076.00
2018-02-15T09:32:47.876Z,1104.00
2018-02-15T09:33:47.822Z,1164.00
2018-02-15T09:34:47.779Z,1152.00
2018-02-15T09:35:47.729Z,1176.00
2018-02-15T09:36:47.683Z,1244.00
2018-02-15T09:37:47.632Z,1340.00
2018-02-15T09:38:47.580Z,1460.00
2018-02-15T09:39:47.529Z,1524.00
2018-02-15T09:40:47.482Z,1496.00
2018-02-15T09:41:47.435Z,1488.00
2018-02-15T09:42:47.383Z,1392.00
2018-02-15T09:43:47.339Z,1168.00
2018-02-15T09:44:47.290Z,1068.00
2018-02-15T09:45:47.291Z,1124.00
2018-02-15T09:46:47.198Z,1036.00
2018-02-15T09:47:47.139Z,944.00
2018-02-15T09:48:47.089Z,904.00
2018-02-15T09:49:47.044Z,936.00
2018-02-15T09:50:46.993Z,988.00
2018-02-15T09:51:46.940Z,948.00
2018-02-15T09:52:46.897Z,948.00
2018-02-15T09:53:46.849Z,956.00
2018-02-15T09:54:46.796Z,1012.00
2018-02-15T09:55:46.746Z,1060.00
2018-02-15T09:56:46.696Z,1152.00
2018-02-15T09:57:46.647Z,1168.00
2018-02-15T09:58:46.598Z,1280.00
2018-02-15T09:59:46.553Z,1308.00
2018-02-15T10:00:46.504Z,1424.00
2018-02-15T10:01:46.452Z,1392.00
2018-02-15T10:02:46.403Z,1368.00
2018-02-15T10:03:46.353Z,1340.00
2018-02-15T10:04:46.304Z,1248.00
2018-02-15T10:05:46.257Z,1252.00
2018-02-15T10:06:46.207Z,1368.00
2018-02-15T10:07:46.159Z,1496.00
2018-02-15T10:08:46.115Z,1596.00
2018-02-15T10:09:46.065Z,1848.00
2018-02-15T10:10:46.017Z,1908.00
2018-02-15T10:11:45.965Z,1856.00
2018-02-15T10:12:45.922Z,1808.00
2018-02-15T10:13:45.865Z,1560.00
2018-02-15T10:14:45.815Z,1444.00
2018-02-15T10:15:45.767Z,1240.00
2018-02-15T10:16:45.719Z,1164.00
2018-02-15T10:17:45.672Z,1292.00
2018-02-15T10:18:45.619Z,1432.00
2018-02-15T10:19:45.568Z,1456.00
2018-02-15T10:20:45.524Z,1400.00
2018-02-15T10:21:45.474Z,1344.00
2018-02-15T10:22:45.434Z,1264.00
2018-02-15T10:23:45.376Z,1160.00
2018-02-15T10:24:45.326Z,1236.00
2018-02-15T10:25:45.279Z,1260.00
2018-02-15T10:26:45.233Z,1444.00
2018-02-15T10:27:45.178Z,1328.00
2018-02-15T10:28:45.130Z,1424.00
2018-02-15T10:29:45.085Z,1532.00
2018-02-15T10:30:45.035Z,1612.00
2018-02-15T10:31:44.984Z,1500.00
2018-02-15T10:32:44.934Z,1396.00
2018-02-15T10:33:44.885Z,1312.00
2018-02-15T10:34:44.838Z,1284.00
2018-02-15T10:35:44.786Z,1208.00
2018-02-15T10:36:44.742Z,1040.00
2018-02-15T10:37:44.691Z,932.00
2018-02-15T10:38:44.641Z,868.00
2018-02-15T10:39:44.592Z,820.00
2018-02-15T10:40:44.542Z,924.00
2018-02-15T10:41:44.496Z,1016.00
2018-02-15T10:42:44.446Z,1004.00
2018-02-15T10:43:44.399Z,1080.00
2018-02-15T10:44:44.351Z,1068.00
2018-02-15T10:45:44.301Z,1116.00
2018-02-15T10:46:44.256Z,1208.00
2018-02-15T10:47:44.202Z,1256.00
2018-02-15T10:48:44.151Z,1320.00
2018-02-15T10:49:44.102Z,1384.00
2018-02-15T10:50:44.054Z,1392.00
2018-02-15T10:51:44.007Z,1412.00
2018-02-15T10:52:43.957Z,1260.00
2018-02-15T10:53:43.908Z,1212.00
2018-02-15T10:54:43.862Z,1128.00
2018-02-15T10:55:43.813Z,1116.00
2018-02-15T10:56:43.763Z,1076.00
2018-02-15T10:57:43.711Z,1160.00
2018-02-15T10:58:43.664Z,1188.00
2018-02-15T10:59:43.614Z,1016.00
2018-02-15T11:00:43.565Z,780.00
2018-02-15T11:01:43.516Z,688.00
2018-02-15T11:02:43.468Z,652.00
2018-02-15T11:03:43.421Z,744.00
2018-02-15T11:04:43.371Z,716.00
2018-02-15T11:05:43.319Z,1068.00
2018-02-15T11:06:43.271Z,1224.00
2018-02-15T11:07:43.223Z,1164.00
2018-02-15T11:08:43.178Z,1092.00
2018-02-15T11:09:43.125Z,1104.00
2018-02-15T11:10:43.077Z,940.00
2018-02-15T11:11:43.033Z,832.00
2018-02-15T11:12:42.976Z,860.00
2018-02-15T11:13:42.938Z,928.00
2018-02-15T11:14:42.880Z,824.00
2018-02-15T11:15:42.832Z,1016.00
2018-02-15T11:16:42.790Z,1212.00
2018-02-15T11:17:42.736Z,1168.00
2018-02-15T11:18:42.684Z,1160.00
2018-02-15T11:19:42.635Z,1144.00
2018-02-15T11:20:42.586Z,1152.00
2018-02-15T11:21:42.544Z,1144.00
2018-02-15T11:22:42.488Z,1020.00
2018-02-15T11:23:42.442Z,948.00
2018-02-15T11:24:42.397Z,872.00
2018-02-15T11:25:42.343Z,888.00
2018-02-15T11:26:42.296Z,1016.00
2018-02-15T11:27:42.246Z,956.00
2018-02-15T11:28:42.198Z,824.00
2018-02-15T11:29:42.147Z,708.00
2018-02-15T11:30:42.102Z,776.00
2018-02-15T11:31:42.093Z,832.00
2018-02-15T11:32:42.001Z,916.00
2018-02-15T11:33:41.957Z,928.00
2018-02-15T11:34:41.906Z,948.00
2018-02-15T11:35:41.857Z,936.00
2018-02-15T11:36:41.820Z,864.00
2018-02-15T11:37:41.758Z,844.00
2018-02-15T11:38:41.712Z,956.00
2018-02-15T11:39:41.665Z,964.00
2018-02-15T11:40:41.614Z,876.00
2018-02-15T11:41:41.567Z,912.00
2018-02-15T11:42:41.522Z,908.00
2018-02-15T11:43:41.472Z,900.00
2018-02-15T11:44:41.421Z,964.00
2018-02-15T11:45:41.372Z,1004.00
2018-02-15T11:46:41.322Z,1084.00
2018-02-15T11:47:41.270Z,1016.00
2018-02-15T11:48:41.227Z,932.00
2018-02-15T11:49:41.176Z,924.00
2018-02-15T11:50:41.128Z,912.00
2018-02-15T11:51:41.079Z,948.00
2018-02-15T11:52:41.029Z,920.00
2018-02-15T11:53:40.981Z,852.00
2018-02-15T11:54:40.932Z,728.00
2018-02-15T11:55:40.893Z,740.00
2018-02-15T11:56:40.878Z,736.00
2018-02-15T11:57:40.788Z,724.00
2018-02-15T11:58:40.738Z,736.00
2018-02-15T11:59:40.690Z,848.00
2018-02-15T12:00:40.642Z,844.00
2018-02-15T12:01:40.592Z,948.00
2018-02-15T12:02:40.548Z,940.00
2018-02-15T12:03:40.497Z,1012.00
2018-02-15T12:04:40.447Z,1108.00
2018-02-15T12:05:40.400Z,1032.00
2018-02-15T12:06:40.355Z,796.00
2018-02-15T12:07:40.304Z,864.00
2018-02-15T12:08:40.254Z,916.00
2018-02-15T12:09:40.208Z,852.00
2018-02-15T12:10:40.182Z,1068.00
2018-02-15T12:11:40.111Z,1012.00
2018-02-15T12:12:40.066Z,852.00
2018-02-15T12:13:40.014Z,744.00
2018-02-15T12:14:39.965Z,756.00
2018-02-15T12:15:39.918Z,828.00
2018-02-15T12:16:39.868Z,920.00
2018-02-15T12:17:39.826Z,796.00
2018-02-15T12:18:39.774Z,704.00
2018-02-15T12:19:39.728Z,684.00
2018-02-15T12:20:39.675Z,656.00
2018-02-15T12:21:39.629Z,656.00
2018-02-15T12:22:39.584Z,864.00
2018-02-15T12:23:39.535Z,1072.00
2018-02-15T12:24:39.484Z,1040.00
2018-02-15T12:25:39.435Z,1204.00
2018-02-15T12:26:39.389Z,1184.00
2018-02-15T12:27:39.338Z,1164.00
2018-02-15T12:28:39.291Z,1156.00
2018-02-15T12:29:39.240Z,1036.00
2018-02-15T12:30:39.192Z,896.00
2018-02-15T12:31:39.145Z,676.00
2018-02-15T12:32:39.096Z,532.00
2018-02-15T12:33:39.048Z,520.00
2018-02-15T12:34:39.001Z,684.00
2018-02-15T12:35:38.957Z,828.00
2018-02-15T12:36:38.909Z,752.00
2018-02-15T12:37:38.860Z,668.00
2018-02-15T12:38:38.807Z,720.00
2018-02-15T12:39:38.758Z,948.00
2018-02-15T12:40:38.709Z,992.00
2018-02-15T12:41:38.671Z,924.00
2018-02-15T12:42:38.617Z,796.00
2018-02-15T12:43:38.569Z,960.00
2018-02-15T12:44:38.521Z,1060.00
2018-02-15T12:45:38.472Z,1048.00
2018-02-15T12:46:38.425Z,1036.00
2018-02-15T12:47:38.374Z,916.00
2018-02-15T12:48:38.329Z,692.00
2018-02-15T12:49:38.287Z,664.00